sensor_id;sensor_type;location;lat;lon;timestamp;P1;durP1;ratioP1;P2;durP2;ratioP2
79346;SDS011;68815;48.810;44.482;2023-12-29T00:01:29;3.3;;;0.9;;
79346;SDS011;68815;48.810;44.482;2023-12-29T00:04:31;2.7;;;0.9;;
79346;SDS011;68815;48.810;44.482;2023-12-29T00:07:33;2.4;;;0.8;;
79346;SDS011;68815;48.810;44.482;2023-12-29T00:10:35;4.6;;;1;;
79346;SDS011;68815;48.810;44.482;2023-12-29T00:13:36;3;;;0.8;;
79346;SDS011;68815;48.810;44.482;2023-12-29T00:16:38;3;;;1;;
79346;SDS011;68815;48.810;44.482;2023-12-29T00:19:40;2.8;;;0.9;;
79346;SDS011;68815;48.810;44.482;2023-12-29T00:22:42;2.5;;;0.9;;
79346;SDS011;68815;48.810;44.482;2023-12-29T00:25:44;2.2;;;0.8;;
79346;SDS011;68815;48.810;44.482;2023-12-29T00:28:46;2.7;;;0.9;;
79346;SDS011;68815;48.810;44.482;2023-12-29T00:31:47;3.5;;;1;;
79346;SDS011;68815;48.810;44.482;2023-12-29T00:34:49;2.9;;;0.9;;
79346;SDS011;68815;48.810;44.482;2023-12-29T00:37:51;2.7;;;0.9;;
79346;SDS011;68815;48.810;44.482;2023-12-29T00:40:53;2.4;;;0.8;;
79346;SDS011;68815;48.810;44.482;2023-12-29T00:43:55;3.3;;;1;;
79346;SDS011;68815;48.810;44.482;2023-12-29T00:46:57;2.9;;;1;;
79346;SDS011;68815;48.810;44.482;2023-12-29T00:49:59;3;;;1.1;;
79346;SDS011;68815;48.810;44.482;2023-12-29T00:53:01;2.4;;;0.8;;
79346;SDS011;68815;48.810;44.482;2023-12-29T00:56:09;2.4;;;0.9;;
79346;SDS011;68815;48.810;44.482;2023-12-29T00:59:12;2.7;;;0.9;;
79346;SDS011;68815;48.810;44.482;2023-12-29T01:02:14;2.5;;;0.9;;
79346;SDS011;68815;48.810;44.482;2023-12-29T01:05:16;2.4;;;1;;
79346;SDS011;68815;48.810;44.482;2023-12-29T01:08:17;3;;;0.9;;
79346;SDS011;68815;48.810;44.482;2023-12-29T01:11:19;2.8;;;0.8;;
79346;SDS011;68815;48.810;44.482;2023-12-29T01:14:21;2.6;;;0.9;;
79346;SDS011;68815;48.810;44.482;2023-12-29T01:17:23;3;;;1.1;;
79346;SDS011;68815;48.810;44.482;2023-12-29T01:20:25;3.3;;;0.8;;
79346;SDS011;68815;48.810;44.482;2023-12-29T01:23:27;3.2;;;1;;
79346;SDS011;68815;48.810;44.482;2023-12-29T01:26:29;3.1;;;0.8;;
79346;SDS011;68815;48.810;44.482;2023-12-29T01:29:31;2.7;;;0.8;;
79346;SDS011;68815;48.810;44.482;2023-12-29T01:32:33;2.6;;;0.9;;
79346;SDS011;68815;48.810;44.482;2023-12-29T01:35:34;3.3;;;1.1;;
79346;SDS011;68815;48.810;44.482;2023-12-29T01:38:36;2.5;;;0.8;;
79346;SDS011;68815;48.810;44.482;2023-12-29T01:41:40;3;;;1;;
79346;SDS011;68815;48.810;44.482;2023-12-29T01:44:41;3.4;;;0.9;;
79346;SDS011;68815;48.810;44.482;2023-12-29T01:47:44;2.8;;;0.9;;
79346;SDS011;68815;48.810;44.482;2023-12-29T01:50:46;2.7;;;0.9;;
79346;SDS011;68815;48.810;44.482;2023-12-29T01:53:48;4.8;;;1.1;;
79346;SDS011;68815;48.810;44.482;2023-12-29T01:56:50;2.6;;;0.9;;
79346;SDS011;68815;48.810;44.482;2023-12-29T01:59:56;2.9;;;0.9;;
79346;SDS011;68815;48.810;44.482;2023-12-29T02:02:58;3;;;1.1;;
79346;SDS011;68815;48.810;44.482;2023-12-29T02:06:00;3.1;;;1.1;;
79346;SDS011;68815;48.810;44.482;2023-12-29T02:09:03;3.2;;;1;;
79346;SDS011;68815;48.810;44.482;2023-12-29T02:12:05;3.4;;;1;;
79346;SDS011;68815;48.810;44.482;2023-12-29T02:15:08;4;;;1.1;;
79346;SDS011;68815;48.810;44.482;2023-12-29T02:18:12;3.1;;;1.1;;
79346;SDS011;68815;48.810;44.482;2023-12-29T02:21:23;4.1;;;1.1;;
79346;SDS011;68815;48.810;44.482;2023-12-29T02:24:25;2.8;;;1;;
79346;SDS011;68815;48.810;44.482;2023-12-29T02:27:31;3;;;1.1;;
79346;SDS011;68815;48.810;44.482;2023-12-29T02:30:41;3.8;;;1.2;;
79346;SDS011;68815;48.810;44.482;2023-12-29T02:33:48;2.9;;;1;;
79346;SDS011;68815;48.810;44.482;2023-12-29T02:36:53;3.6;;;1;;
79346;SDS011;68815;48.810;44.482;2023-12-29T02:39:56;3.1;;;1.1;;
79346;SDS011;68815;48.810;44.482;2023-12-29T02:42:59;4.5;;;1.2;;
79346;SDS011;68815;48.810;44.482;2023-12-29T02:46:01;2.7;;;1.1;;
79346;SDS011;68815;48.810;44.482;2023-12-29T02:49:03;3.9;;;1.3;;
79346;SDS011;68815;48.810;44.482;2023-12-29T02:52:05;3.5;;;1.4;;
79346;SDS011;68815;48.810;44.482;2023-12-29T02:55:07;3;;;1.3;;
79346;SDS011;68815;48.810;44.482;2023-12-29T02:58:09;3.2;;;1.1;;
79346;SDS011;68815;48.810;44.482;2023-12-29T03:01:11;4.9;;;1.5;;
79346;SDS011;68815;48.810;44.482;2023-12-29T03:04:13;4;;;1.2;;
79346;SDS011;68815;48.810;44.482;2023-12-29T03:07:15;3.6;;;1.2;;
79346;SDS011;68815;48.810;44.482;2023-12-29T03:10:17;4.4;;;1.3;;
79346;SDS011;68815;48.810;44.482;2023-12-29T03:13:20;3.1;;;1.2;;
79346;SDS011;68815;48.810;44.482;2023-12-29T03:16:21;3.2;;;1.2;;
79346;SDS011;68815;48.810;44.482;2023-12-29T03:19:23;4.3;;;1.5;;
79346;SDS011;68815;48.810;44.482;2023-12-29T03:22:25;4;;;1.5;;
79346;SDS011;68815;48.810;44.482;2023-12-29T03:25:27;3.8;;;1.4;;
79346;SDS011;68815;48.810;44.482;2023-12-29T03:28:29;3.7;;;1.4;;
79346;SDS011;68815;48.810;44.482;2023-12-29T03:31:31;4.4;;;1.6;;
79346;SDS011;68815;48.810;44.482;2023-12-29T03:34:34;4.4;;;1.8;;
79346;SDS011;68815;48.810;44.482;2023-12-29T03:37:35;3.8;;;1.7;;
79346;SDS011;68815;48.810;44.482;2023-12-29T03:40:37;4.3;;;1.7;;
79346;SDS011;68815;48.810;44.482;2023-12-29T03:43:39;5.2;;;1.7;;
79346;SDS011;68815;48.810;44.482;2023-12-29T03:46:41;4.7;;;1.5;;
79346;SDS011;68815;48.810;44.482;2023-12-29T03:49:43;4.8;;;1.7;;
79346;SDS011;68815;48.810;44.482;2023-12-29T03:52:44;3.7;;;1.6;;
79346;SDS011;68815;48.810;44.482;2023-12-29T03:55:46;4.5;;;1.8;;
79346;SDS011;68815;48.810;44.482;2023-12-29T03:58:48;4.7;;;1.8;;
79346;SDS011;68815;48.810;44.482;2023-12-29T04:01:50;4;;;1.7;;
79346;SDS011;68815;48.810;44.482;2023-12-29T04:04:52;3.5;;;1.6;;
79346;SDS011;68815;48.810;44.482;2023-12-29T04:07:53;5.2;;;2.2;;
79346;SDS011;68815;48.810;44.482;2023-12-29T04:10:56;5.4;;;2.1;;
79346;SDS011;68815;48.810;44.482;2023-12-29T04:13:58;4.1;;;1.8;;
79346;SDS011;68815;48.810;44.482;2023-12-29T04:17:00;4.3;;;1.7;;
79346;SDS011;68815;48.810;44.482;2023-12-29T04:20:02;4.5;;;2;;
79346;SDS011;68815;48.810;44.482;2023-12-29T04:23:06;4.9;;;2.2;;
79346;SDS011;68815;48.810;44.482;2023-12-29T04:26:08;4.8;;;2;;
79346;SDS011;68815;48.810;44.482;2023-12-29T04:29:10;5.8;;;2.3;;
79346;SDS011;68815;48.810;44.482;2023-12-29T04:32:12;5.3;;;2.2;;
79346;SDS011;68815;48.810;44.482;2023-12-29T04:35:14;5.6;;;2.1;;
79346;SDS011;68815;48.810;44.482;2023-12-29T04:38:16;5.2;;;2.1;;
79346;SDS011;68815;48.810;44.482;2023-12-29T04:41:18;5.5;;;2;;
79346;SDS011;68815;48.810;44.482;2023-12-29T04:44:20;7.2;;;2;;
79346;SDS011;68815;48.810;44.482;2023-12-29T04:47:22;5.2;;;2.1;;
79346;SDS011;68815;48.810;44.482;2023-12-29T04:50:24;6.1;;;2.4;;
79346;SDS011;68815;48.810;44.482;2023-12-29T04:53:26;4.3;;;2;;
79346;SDS011;68815;48.810;44.482;2023-12-29T04:56:28;5.5;;;2.1;;
79346;SDS011;68815;48.810;44.482;2023-12-29T04:59:30;8.4;;;2.7;;
79346;SDS011;68815;48.810;44.482;2023-12-29T05:02:32;5.4;;;2.4;;
79346;SDS011;68815;48.810;44.482;2023-12-29T05:05:33;9.2;;;2.7;;
79346;SDS011;68815;48.810;44.482;2023-12-29T05:08:35;6.3;;;2.6;;
79346;SDS011;68815;48.810;44.482;2023-12-29T05:11:37;6.6;;;2.9;;
79346;SDS011;68815;48.810;44.482;2023-12-29T05:14:39;5.6;;;2.6;;
79346;SDS011;68815;48.810;44.482;2023-12-29T05:17:41;5.3;;;2.4;;
79346;SDS011;68815;48.810;44.482;2023-12-29T05:20:43;7.5;;;3;;
79346;SDS011;68815;48.810;44.482;2023-12-29T05:23:45;8.6;;;2.9;;
79346;SDS011;68815;48.810;44.482;2023-12-29T05:26:47;6.6;;;2.6;;
79346;SDS011;68815;48.810;44.482;2023-12-29T05:29:48;9;;;3.5;;
79346;SDS011;68815;48.810;44.482;2023-12-29T05:32:50;9.6;;;3.3;;
79346;SDS011;68815;48.810;44.482;2023-12-29T05:35:52;8.3;;;3.1;;
79346;SDS011;68815;48.810;44.482;2023-12-29T05:38:55;7.4;;;2.8;;
79346;SDS011;68815;48.810;44.482;2023-12-29T05:41:57;10.8;;;3.7;;
79346;SDS011;68815;48.810;44.482;2023-12-29T05:44:59;9.4;;;3.1;;
79346;SDS011;68815;48.810;44.482;2023-12-29T05:48:01;10;;;3;;
79346;SDS011;68815;48.810;44.482;2023-12-29T05:51:05;8.6;;;3.6;;
79346;SDS011;68815;48.810;44.482;2023-12-29T05:54:07;8.8;;;3.2;;
79346;SDS011;68815;48.810;44.482;2023-12-29T05:57:09;8.9;;;3.8;;
79346;SDS011;68815;48.810;44.482;2023-12-29T06:00:12;9.9;;;3.7;;
79346;SDS011;68815;48.810;44.482;2023-12-29T06:03:14;7.1;;;3.2;;
79346;SDS011;68815;48.810;44.482;2023-12-29T06:06:16;7.6;;;3.3;;
79346;SDS011;68815;48.810;44.482;2023-12-29T06:09:18;8.3;;;3.3;;
79346;SDS011;68815;48.810;44.482;2023-12-29T06:12:20;8.6;;;3.1;;
79346;SDS011;68815;48.810;44.482;2023-12-29T06:15:22;9.8;;;3.3;;
79346;SDS011;68815;48.810;44.482;2023-12-29T06:18:24;7.6;;;3.3;;
79346;SDS011;68815;48.810;44.482;2023-12-29T06:21:26;8.7;;;3.4;;
79346;SDS011;68815;48.810;44.482;2023-12-29T06:24:27;8.6;;;3.5;;
79346;SDS011;68815;48.810;44.482;2023-12-29T06:27:29;10.7;;;3.6;;
79346;SDS011;68815;48.810;44.482;2023-12-29T06:30:31;8.1;;;3.3;;
79346;SDS011;68815;48.810;44.482;2023-12-29T06:33:33;7.4;;;3.5;;
79346;SDS011;68815;48.810;44.482;2023-12-29T06:36:35;7.4;;;3.4;;
79346;SDS011;68815;48.810;44.482;2023-12-29T06:39:38;10.8;;;3.3;;
79346;SDS011;68815;48.810;44.482;2023-12-29T06:42:39;8;;;3.6;;
79346;SDS011;68815;48.810;44.482;2023-12-29T06:45:41;8.5;;;3.4;;
79346;SDS011;68815;48.810;44.482;2023-12-29T06:48:43;9.3;;;3.5;;
79346;SDS011;68815;48.810;44.482;2023-12-29T06:51:45;8.6;;;3.1;;
79346;SDS011;68815;48.810;44.482;2023-12-29T06:54:47;8.7;;;3.4;;
79346;SDS011;68815;48.810;44.482;2023-12-29T06:57:49;10;;;3.3;;
79346;SDS011;68815;48.810;44.482;2023-12-29T07:00:51;9.7;;;3;;
79346;SDS011;68815;48.810;44.482;2023-12-29T07:03:53;11.7;;;3.5;;
79346;SDS011;68815;48.810;44.482;2023-12-29T07:06:55;6.9;;;2.5;;
79346;SDS011;68815;48.810;44.482;2023-12-29T07:09:56;11.4;;;3.4;;
79346;SDS011;68815;48.810;44.482;2023-12-29T07:12:58;5.9;;;2.7;;
79346;SDS011;68815;48.810;44.482;2023-12-29T07:16:00;9.6;;;3.1;;
79346;SDS011;68815;48.810;44.482;2023-12-29T07:19:02;6.9;;;3.2;;
79346;SDS011;68815;48.810;44.482;2023-12-29T07:22:04;8.3;;;2.8;;
79346;SDS011;68815;48.810;44.482;2023-12-29T07:25:06;10.6;;;3.7;;
79346;SDS011;68815;48.810;44.482;2023-12-29T07:28:08;7.9;;;3.1;;
79346;SDS011;68815;48.810;44.482;2023-12-29T07:31:10;7.2;;;3.1;;
79346;SDS011;68815;48.810;44.482;2023-12-29T07:34:12;8.8;;;3.3;;
79346;SDS011;68815;48.810;44.482;2023-12-29T07:37:15;8.8;;;3.1;;
79346;SDS011;68815;48.810;44.482;2023-12-29T07:40:18;7.6;;;3.2;;
79346;SDS011;68815;48.810;44.482;2023-12-29T07:43:20;8.7;;;3.2;;
79346;SDS011;68815;48.810;44.482;2023-12-29T07:46:24;10.8;;;3.3;;
79346;SDS011;68815;48.810;44.482;2023-12-29T07:49:26;8.6;;;3.2;;
79346;SDS011;68815;48.810;44.482;2023-12-29T07:52:29;7.5;;;3.4;;
79346;SDS011;68815;48.810;44.482;2023-12-29T07:55:31;8.4;;;3.4;;
79346;SDS011;68815;48.810;44.482;2023-12-29T07:58:33;7.6;;;3.9;;
79346;SDS011;68815;48.810;44.482;2023-12-29T08:01:35;10.2;;;3.3;;
79346;SDS011;68815;48.810;44.482;2023-12-29T08:04:37;10.3;;;3.5;;
79346;SDS011;68815;48.810;44.482;2023-12-29T08:07:39;8.2;;;3.3;;
79346;SDS011;68815;48.810;44.482;2023-12-29T08:10:41;9.7;;;3;;
79346;SDS011;68815;48.810;44.482;2023-12-29T08:13:43;9.4;;;3.2;;
79346;SDS011;68815;48.810;44.482;2023-12-29T08:16:45;8.1;;;3.4;;
79346;SDS011;68815;48.810;44.482;2023-12-29T08:19:47;10.3;;;3.5;;
79346;SDS011;68815;48.810;44.482;2023-12-29T08:22:49;8;;;3.6;;
79346;SDS011;68815;48.810;44.482;2023-12-29T08:25:50;8.9;;;3.5;;
79346;SDS011;68815;48.810;44.482;2023-12-29T08:28:52;7.6;;;3.6;;
79346;SDS011;68815;48.810;44.482;2023-12-29T08:31:54;8.5;;;3.4;;
79346;SDS011;68815;48.810;44.482;2023-12-29T08:34:56;8.8;;;3.4;;
79346;SDS011;68815;48.810;44.482;2023-12-29T08:37:58;7.2;;;3.4;;
79346;SDS011;68815;48.810;44.482;2023-12-29T08:40:59;8.7;;;2.9;;
79346;SDS011;68815;48.810;44.482;2023-12-29T08:44:02;8.1;;;3.3;;
79346;SDS011;68815;48.810;44.482;2023-12-29T08:47:04;9.3;;;4;;
79346;SDS011;68815;48.810;44.482;2023-12-29T08:50:06;7;;;3;;
79346;SDS011;68815;48.810;44.482;2023-12-29T08:53:08;8.8;;;3.2;;
79346;SDS011;68815;48.810;44.482;2023-12-29T08:56:10;9.2;;;3.5;;
79346;SDS011;68815;48.810;44.482;2023-12-29T08:59:12;10.3;;;3.6;;
79346;SDS011;68815;48.810;44.482;2023-12-29T09:02:14;9.7;;;3.6;;
79346;SDS011;68815;48.810;44.482;2023-12-29T09:05:16;9.3;;;3.8;;
79346;SDS011;68815;48.810;44.482;2023-12-29T09:08:17;6.8;;;3.3;;
79346;SDS011;68815;48.810;44.482;2023-12-29T09:11:19;8.5;;;3.5;;
79346;SDS011;68815;48.810;44.482;2023-12-29T09:14:21;8;;;3.5;;
79346;SDS011;68815;48.810;44.482;2023-12-29T09:17:23;8.7;;;3.5;;
79346;SDS011;68815;48.810;44.482;2023-12-29T09:20:25;7.4;;;3.2;;
79346;SDS011;68815;48.810;44.482;2023-12-29T09:23:28;6.1;;;3.3;;
79346;SDS011;68815;48.810;44.482;2023-12-29T09:26:29;8.1;;;3;;
79346;SDS011;68815;48.810;44.482;2023-12-29T09:29:31;10.5;;;3.3;;
79346;SDS011;68815;48.810;44.482;2023-12-29T09:32:33;8.2;;;2.8;;
79346;SDS011;68815;48.810;44.482;2023-12-29T09:35:35;8.6;;;2.7;;
79346;SDS011;68815;48.810;44.482;2023-12-29T09:38:36;5.5;;;2.5;;
79346;SDS011;68815;48.810;44.482;2023-12-29T09:41:39;7.3;;;2.9;;
79346;SDS011;68815;48.810;44.482;2023-12-29T09:44:46;6.7;;;2.5;;
79346;SDS011;68815;48.810;44.482;2023-12-29T09:47:51;7.6;;;3.2;;
79346;SDS011;68815;48.810;44.482;2023-12-29T09:50:54;7.8;;;2.7;;
79346;SDS011;68815;48.810;44.482;2023-12-29T09:53:56;8;;;2.9;;
79346;SDS011;68815;48.810;44.482;2023-12-29T09:56:58;6.2;;;2.4;;
79346;SDS011;68815;48.810;44.482;2023-12-29T10:00:00;5.3;;;2.3;;
79346;SDS011;68815;48.810;44.482;2023-12-29T10:03:05;6;;;2.1;;
79346;SDS011;68815;48.810;44.482;2023-12-29T10:06:08;6.2;;;2;;
79346;SDS011;68815;48.810;44.482;2023-12-29T10:09:15;5.7;;;2.4;;
79346;SDS011;68815;48.810;44.482;2023-12-29T10:12:18;5.7;;;2.2;;
79346;SDS011;68815;48.810;44.482;2023-12-29T10:15:23;4.8;;;2.3;;
79346;SDS011;68815;48.810;44.482;2023-12-29T10:18:39;5.1;;;2;;
79346;SDS011;68815;48.810;44.482;2023-12-29T10:21:48;4.5;;;2;;
79346;SDS011;68815;48.810;44.482;2023-12-29T10:24:56;5.3;;;1.9;;
79346;SDS011;68815;48.810;44.482;2023-12-29T10:27:59;7;;;2.6;;
79346;SDS011;68815;48.810;44.482;2023-12-29T10:31:01;4.6;;;2;;
79346;SDS011;68815;48.810;44.482;2023-12-29T10:37:22;7.3;;;2;;
79346;SDS011;68815;48.810;44.482;2023-12-29T10:40:24;5.6;;;2.1;;
79346;SDS011;68815;48.810;44.482;2023-12-29T10:43:26;4.7;;;2.1;;
79346;SDS011;68815;48.810;44.482;2023-12-29T10:46:28;4.5;;;2;;
79346;SDS011;68815;48.810;44.482;2023-12-29T10:49:31;4.1;;;2;;
79346;SDS011;68815;48.810;44.482;2023-12-29T10:52:33;4.4;;;1.9;;
79346;SDS011;68815;48.810;44.482;2023-12-29T10:55:35;5.8;;;1.8;;
79346;SDS011;68815;48.810;44.482;2023-12-29T10:58:37;6.2;;;2.1;;
79346;SDS011;68815;48.810;44.482;2023-12-29T11:01:38;4.7;;;2;;
79346;SDS011;68815;48.810;44.482;2023-12-29T11:04:40;5.6;;;2.2;;
79346;SDS011;68815;48.810;44.482;2023-12-29T11:07:42;5.1;;;1.7;;
79346;SDS011;68815;48.810;44.482;2023-12-29T11:10:44;6;;;1.9;;
79346;SDS011;68815;48.810;44.482;2023-12-29T11:13:47;5.3;;;1.9;;
79346;SDS011;68815;48.810;44.482;2023-12-29T11:16:50;5.7;;;2.1;;
79346;SDS011;68815;48.810;44.482;2023-12-29T11:19:53;4.7;;;2.1;;
79346;SDS011;68815;48.810;44.482;2023-12-29T11:22:56;4.9;;;2.3;;
79346;SDS011;68815;48.810;44.482;2023-12-29T11:25:57;6;;;2.1;;
79346;SDS011;68815;48.810;44.482;2023-12-29T11:29:00;5.2;;;2.1;;
79346;SDS011;68815;48.810;44.482;2023-12-29T11:32:03;5.4;;;2.3;;
79346;SDS011;68815;48.810;44.482;2023-12-29T11:35:12;6.8;;;2.4;;
79346;SDS011;68815;48.810;44.482;2023-12-29T11:38:21;6.6;;;2.1;;
79346;SDS011;68815;48.810;44.482;2023-12-29T11:41:30;6.2;;;2.3;;
79346;SDS011;68815;48.810;44.482;2023-12-29T11:44:35;5.5;;;2.2;;
79346;SDS011;68815;48.810;44.482;2023-12-29T11:47:37;6;;;2.1;;
79346;SDS011;68815;48.810;44.482;2023-12-29T11:50:40;7.5;;;2.3;;
79346;SDS011;68815;48.810;44.482;2023-12-29T11:53:42;5.3;;;2.4;;
79346;SDS011;68815;48.810;44.482;2023-12-29T11:56:44;7.5;;;2.6;;
79346;SDS011;68815;48.810;44.482;2023-12-29T11:59:47;5.4;;;2.1;;
79346;SDS011;68815;48.810;44.482;2023-12-29T12:02:49;7.9;;;2.6;;
79346;SDS011;68815;48.810;44.482;2023-12-29T12:05:51;5.1;;;2.2;;
79346;SDS011;68815;48.810;44.482;2023-12-29T12:08:56;6.8;;;2.4;;
79346;SDS011;68815;48.810;44.482;2023-12-29T12:15:46;5.5;;;2.4;;
79346;SDS011;68815;48.810;44.482;2023-12-29T12:18:47;6;;;2.3;;
79346;SDS011;68815;48.810;44.482;2023-12-29T12:21:50;6.3;;;2.6;;
79346;SDS011;68815;48.810;44.482;2023-12-29T12:24:55;4.9;;;2.2;;
79346;SDS011;68815;48.810;44.482;2023-12-29T12:27:57;5.4;;;2.5;;
79346;SDS011;68815;48.810;44.482;2023-12-29T12:31:07;5.9;;;2.4;;
79346;SDS011;68815;48.810;44.482;2023-12-29T12:34:14;6.8;;;2.1;;
79346;SDS011;68815;48.810;44.482;2023-12-29T12:37:18;6;;;2.6;;
79346;SDS011;68815;48.810;44.482;2023-12-29T12:40:24;8.1;;;2.5;;
79346;SDS011;68815;48.810;44.482;2023-12-29T12:43:27;5.2;;;2.3;;
79346;SDS011;68815;48.810;44.482;2023-12-29T12:46:33;5.8;;;2.5;;
79346;SDS011;68815;48.810;44.482;2023-12-29T12:49:37;7.2;;;2.8;;
79346;SDS011;68815;48.810;44.482;2023-12-29T12:52:39;4.9;;;2.4;;
79346;SDS011;68815;48.810;44.482;2023-12-29T12:55:41;6.2;;;2.7;;
79346;SDS011;68815;48.810;44.482;2023-12-29T12:58:43;6.8;;;2.9;;
79346;SDS011;68815;48.810;44.482;2023-12-29T13:01:45;7.2;;;2.7;;
79346;SDS011;68815;48.810;44.482;2023-12-29T13:04:47;5.4;;;2.5;;
79346;SDS011;68815;48.810;44.482;2023-12-29T13:07:52;7;;;2.4;;
79346;SDS011;68815;48.810;44.482;2023-12-29T13:10:55;5.6;;;2.5;;
79346;SDS011;68815;48.810;44.482;2023-12-29T13:13:58;7.5;;;2.5;;
79346;SDS011;68815;48.810;44.482;2023-12-29T13:17:05;5.7;;;2.8;;
79346;SDS011;68815;48.810;44.482;2023-12-29T13:20:08;7.9;;;2.8;;
79346;SDS011;68815;48.810;44.482;2023-12-29T13:23:10;7.1;;;2.9;;
79346;SDS011;68815;48.810;44.482;2023-12-29T13:26:12;6.6;;;2.9;;
79346;SDS011;68815;48.810;44.482;2023-12-29T13:29:14;8.5;;;3;;
79346;SDS011;68815;48.810;44.482;2023-12-29T13:32:17;6;;;2.9;;
79346;SDS011;68815;48.810;44.482;2023-12-29T13:35:22;7.1;;;2.8;;
79346;SDS011;68815;48.810;44.482;2023-12-29T13:38:32;7.6;;;3.3;;
79346;SDS011;68815;48.810;44.482;2023-12-29T13:41:38;7;;;2.8;;
79346;SDS011;68815;48.810;44.482;2023-12-29T13:44:40;6.5;;;2.6;;
79346;SDS011;68815;48.810;44.482;2023-12-29T13:47:45;5.8;;;2.9;;
79346;SDS011;68815;48.810;44.482;2023-12-29T13:50:48;7.9;;;2.8;;
79346;SDS011;68815;48.810;44.482;2023-12-29T13:53:50;6;;;2.8;;
79346;SDS011;68815;48.810;44.482;2023-12-29T13:56:59;7.8;;;3;;
79346;SDS011;68815;48.810;44.482;2023-12-29T14:03:22;7.7;;;3.3;;
79346;SDS011;68815;48.810;44.482;2023-12-29T14:06:27;6.7;;;2.7;;
79346;SDS011;68815;48.810;44.482;2023-12-29T14:09:34;7.4;;;2.8;;
79346;SDS011;68815;48.810;44.482;2023-12-29T14:12:36;8;;;3.2;;
79346;SDS011;68815;48.810;44.482;2023-12-29T14:15:39;7.2;;;3.3;;
79346;SDS011;68815;48.810;44.482;2023-12-29T14:18:52;8.1;;;3;;
79346;SDS011;68815;48.810;44.482;2023-12-29T14:21:56;7.2;;;3.1;;
79346;SDS011;68815;48.810;44.482;2023-12-29T14:25:00;6.5;;;3.1;;
79346;SDS011;68815;48.810;44.482;2023-12-29T14:28:02;7.3;;;3.3;;
79346;SDS011;68815;48.810;44.482;2023-12-29T14:31:05;6.8;;;3.1;;
79346;SDS011;68815;48.810;44.482;2023-12-29T14:34:07;9.4;;;3.7;;
79346;SDS011;68815;48.810;44.482;2023-12-29T14:37:10;8.9;;;3.1;;
79346;SDS011;68815;48.810;44.482;2023-12-29T14:40:12;7.1;;;2.7;;
79346;SDS011;68815;48.810;44.482;2023-12-29T14:43:14;8.4;;;3.3;;
79346;SDS011;68815;48.810;44.482;2023-12-29T14:46:16;7.2;;;3.2;;
79346;SDS011;68815;48.810;44.482;2023-12-29T14:49:18;6.6;;;3.2;;
79346;SDS011;68815;48.810;44.482;2023-12-29T14:52:20;5.8;;;3.1;;
79346;SDS011;68815;48.810;44.482;2023-12-29T14:55:21;8.6;;;2.8;;
79346;SDS011;68815;48.810;44.482;2023-12-29T14:58:23;6.7;;;2.9;;
79346;SDS011;68815;48.810;44.482;2023-12-29T15:01:25;5.3;;;3;;
79346;SDS011;68815;48.810;44.482;2023-12-29T15:04:27;7.8;;;3.4;;
79346;SDS011;68815;48.810;44.482;2023-12-29T15:07:29;8.7;;;3.3;;
79346;SDS011;68815;48.810;44.482;2023-12-29T15:10:31;7.2;;;3.2;;
79346;SDS011;68815;48.810;44.482;2023-12-29T15:13:33;8.3;;;3.2;;
79346;SDS011;68815;48.810;44.482;2023-12-29T15:16:35;8.4;;;3.6;;
79346;SDS011;68815;48.810;44.482;2023-12-29T15:19:37;6.4;;;2.9;;
79346;SDS011;68815;48.810;44.482;2023-12-29T15:22:39;8.5;;;3.5;;
79346;SDS011;68815;48.810;44.482;2023-12-29T15:25:41;6.2;;;3;;
79346;SDS011;68815;48.810;44.482;2023-12-29T15:28:43;7.3;;;3.1;;
79346;SDS011;68815;48.810;44.482;2023-12-29T15:31:45;10;;;3.3;;
79346;SDS011;68815;48.810;44.482;2023-12-29T15:34:46;7;;;3.3;;
79346;SDS011;68815;48.810;44.482;2023-12-29T15:37:48;10.8;;;3.5;;
79346;SDS011;68815;48.810;44.482;2023-12-29T15:40:50;7;;;3.3;;
79346;SDS011;68815;48.810;44.482;2023-12-29T15:43:52;11.1;;;3.4;;
79346;SDS011;68815;48.810;44.482;2023-12-29T15:46:54;7.8;;;3.2;;
79346;SDS011;68815;48.810;44.482;2023-12-29T15:49:56;8.7;;;3.1;;
79346;SDS011;68815;48.810;44.482;2023-12-29T15:52:57;7.8;;;3.5;;
79346;SDS011;68815;48.810;44.482;2023-12-29T15:55:59;7.7;;;3.4;;
79346;SDS011;68815;48.810;44.482;2023-12-29T15:59:01;7.4;;;3.3;;
79346;SDS011;68815;48.810;44.482;2023-12-29T16:02:04;7.7;;;3.1;;
79346;SDS011;68815;48.810;44.482;2023-12-29T16:05:06;7.1;;;3.4;;
79346;SDS011;68815;48.810;44.482;2023-12-29T16:08:08;6.4;;;3;;
79346;SDS011;68815;48.810;44.482;2023-12-29T16:11:18;7.5;;;3.2;;
79346;SDS011;68815;48.810;44.482;2023-12-29T16:14:20;7.4;;;3.4;;
79346;SDS011;68815;48.810;44.482;2023-12-29T16:17:22;6.4;;;3.1;;
79346;SDS011;68815;48.810;44.482;2023-12-29T16:20:24;8.1;;;3.4;;
79346;SDS011;68815;48.810;44.482;2023-12-29T16:23:26;8.5;;;3.3;;
79346;SDS011;68815;48.810;44.482;2023-12-29T16:26:28;7.4;;;3.5;;
79346;SDS011;68815;48.810;44.482;2023-12-29T16:29:30;7.1;;;3;;
79346;SDS011;68815;48.810;44.482;2023-12-29T16:32:32;9.2;;;3.8;;
79346;SDS011;68815;48.810;44.482;2023-12-29T16:35:33;8;;;3.1;;
79346;SDS011;68815;48.810;44.482;2023-12-29T16:38:35;7;;;3.4;;
79346;SDS011;68815;48.810;44.482;2023-12-29T16:41:38;6.4;;;3.3;;
79346;SDS011;68815;48.810;44.482;2023-12-29T16:44:45;8.3;;;3.2;;
79346;SDS011;68815;48.810;44.482;2023-12-29T16:47:47;6.7;;;3.2;;
79346;SDS011;68815;48.810;44.482;2023-12-29T16:50:49;7.8;;;3.3;;
79346;SDS011;68815;48.810;44.482;2023-12-29T16:53:51;8.5;;;3.5;;
79346;SDS011;68815;48.810;44.482;2023-12-29T16:56:53;8.2;;;3.8;;
79346;SDS011;68815;48.810;44.482;2023-12-29T16:59:55;6.3;;;3.1;;
79346;SDS011;68815;48.810;44.482;2023-12-29T17:02:56;7.4;;;3.5;;
79346;SDS011;68815;48.810;44.482;2023-12-29T17:05:58;6.9;;;3.4;;
79346;SDS011;68815;48.810;44.482;2023-12-29T17:09:00;12;;;3.7;;
79346;SDS011;68815;48.810;44.482;2023-12-29T17:12:02;9.4;;;3.5;;
79346;SDS011;68815;48.810;44.482;2023-12-29T17:15:04;9.7;;;3.3;;
79346;SDS011;68815;48.810;44.482;2023-12-29T17:18:07;8.3;;;3.4;;
79346;SDS011;68815;48.810;44.482;2023-12-29T17:21:09;8.7;;;3.5;;
79346;SDS011;68815;48.810;44.482;2023-12-29T17:24:12;7.2;;;3.1;;
79346;SDS011;68815;48.810;44.482;2023-12-29T17:27:14;7.4;;;3.2;;
79346;SDS011;68815;48.810;44.482;2023-12-29T17:30:16;5.7;;;3.5;;
79346;SDS011;68815;48.810;44.482;2023-12-29T17:33:18;9.2;;;3.6;;
79346;SDS011;68815;48.810;44.482;2023-12-29T17:36:20;8.4;;;3.6;;
79346;SDS011;68815;48.810;44.482;2023-12-29T17:39:22;6.5;;;3.3;;
79346;SDS011;68815;48.810;44.482;2023-12-29T17:42:23;9.1;;;4;;
79346;SDS011;68815;48.810;44.482;2023-12-29T17:45:26;8;;;3.3;;
79346;SDS011;68815;48.810;44.482;2023-12-29T17:48:28;9.6;;;3.7;;
79346;SDS011;68815;48.810;44.482;2023-12-29T17:51:30;7.4;;;3.8;;
79346;SDS011;68815;48.810;44.482;2023-12-29T17:54:32;8.5;;;3.9;;
79346;SDS011;68815;48.810;44.482;2023-12-29T17:57:33;8.1;;;4;;
79346;SDS011;68815;48.810;44.482;2023-12-29T18:00:35;9;;;4;;
79346;SDS011;68815;48.810;44.482;2023-12-29T18:03:37;9.5;;;4.4;;
79346;SDS011;68815;48.810;44.482;2023-12-29T18:06:40;9.7;;;4;;
79346;SDS011;68815;48.810;44.482;2023-12-29T18:09:42;8.4;;;4.1;;
79346;SDS011;68815;48.810;44.482;2023-12-29T18:12:44;9.4;;;4.2;;
79346;SDS011;68815;48.810;44.482;2023-12-29T18:15:46;9.5;;;4.2;;
79346;SDS011;68815;48.810;44.482;2023-12-29T18:18:48;8.3;;;4;;
79346;SDS011;68815;48.810;44.482;2023-12-29T18:21:50;9.8;;;4.9;;
79346;SDS011;68815;48.810;44.482;2023-12-29T18:24:51;9.5;;;4.4;;
79346;SDS011;68815;48.810;44.482;2023-12-29T18:27:53;8;;;4.5;;
79346;SDS011;68815;48.810;44.482;2023-12-29T18:30:55;8;;;4.2;;
79346;SDS011;68815;48.810;44.482;2023-12-29T18:33:57;9.4;;;4.2;;
79346;SDS011;68815;48.810;44.482;2023-12-29T18:36:59;9.6;;;4.5;;
79346;SDS011;68815;48.810;44.482;2023-12-29T18:40:01;8.7;;;3.9;;
79346;SDS011;68815;48.810;44.482;2023-12-29T18:43:05;9;;;4.2;;
79346;SDS011;68815;48.810;44.482;2023-12-29T18:46:08;8.6;;;4.2;;
79346;SDS011;68815;48.810;44.482;2023-12-29T18:49:10;26.4;;;10.4;;
79346;SDS011;68815;48.810;44.482;2023-12-29T18:52:11;35.2;;;13.3;;
79346;SDS011;68815;48.810;44.482;2023-12-29T18:55:13;21.6;;;9.4;;